Bulford, United Kingdom
Current Conditions -  °F | °C
As of 9:50 AM on Wednesday 26 Nov 2014 (Local Time) from EGDM Reporting Station
Haze Haze  
Wind Chill: 41°   Ceiling: 100
Heat Index: 45°   Visibility: 1.3mi
Dew Point: 45°   Wind: 6mph
Humidity: 100%   Direction: 350°N
Pressure: 29.85"   Gusts: NA
Location:  51.19°N, 1.76°W
Report Text: EGDM 260950Z 35005KT 2200 BR OVC001 07/07 Q1011 RED BECMG 3000 BKN002 AMB
Loading
Personal Weather Stations






























Interactive Weather Map New forecast layout! Learn more

10-Day Weather Forecast

Advertisements
Track Severe Weather on mobile